createdAt,value
2022-09-14T00:01:41.481Z,50.60
2022-09-14T00:04:11.784Z,50.70
2022-09-14T00:06:39.343Z,50.50
2022-09-14T00:09:07.504Z,50.70
2022-09-14T00:11:36.198Z,50.60
2022-09-14T00:14:04.165Z,50.90
2022-09-14T00:16:32.657Z,51.10
2022-09-14T00:19:01.431Z,51.20
2022-09-14T00:21:28.434Z,51.10
2022-09-14T00:23:55.446Z,51.10
2022-09-14T00:26:24.202Z,51.30
2022-09-14T00:28:53.412Z,51.20
2022-09-14T00:31:21.707Z,51.30
2022-09-14T00:33:50.443Z,51.30
2022-09-14T00:36:19.710Z,51.30
2022-09-14T00:38:47.343Z,51.40
2022-09-14T00:41:17.725Z,51.10
2022-09-14T00:43:58.242Z,51.30
2022-09-14T00:46:27.788Z,51.00
2022-09-14T00:48:55.680Z,51.00
2022-09-14T00:51:23.053Z,51.20
2022-09-14T00:53:50.732Z,51.40
2022-09-14T00:56:17.926Z,51.20
2022-09-14T00:58:47.683Z,51.60
2022-09-14T01:01:16.694Z,51.00
2022-09-14T01:03:43.466Z,51.10
2022-09-14T01:06:18.241Z,51.00
2022-09-14T01:09:05.842Z,51.20
2022-09-14T01:11:59.185Z,51.20
2022-09-14T01:14:31.818Z,51.10
2022-09-14T01:17:06.627Z,51.00
2022-09-14T01:19:46.253Z,50.90
2022-09-14T01:22:18.848Z,51.20
2022-09-14T01:24:48.770Z,51.40
2022-09-14T01:27:27.677Z,51.60
2022-09-14T01:30:04.112Z,51.20
2022-09-14T01:32:35.807Z,52.60
2022-09-14T01:35:15.202Z,51.70
2022-09-14T01:37:46.636Z,51.90
2022-09-14T01:40:17.522Z,51.90
2022-09-14T01:42:49.729Z,51.80
2022-09-14T01:45:19.589Z,51.90
2022-09-14T01:47:51.768Z,52.20
2022-09-14T01:50:23.047Z,51.60
2022-09-14T01:52:54.575Z,51.70
2022-09-14T01:55:25.960Z,52.00
2022-09-14T01:58:00.210Z,52.00
2022-09-14T02:00:27.549Z,52.20
2022-09-14T02:02:57.062Z,51.70
2022-09-14T02:05:28.528Z,51.70
2022-09-14T02:07:56.235Z,51.60
2022-09-14T02:10:24.297Z,51.30
2022-09-14T02:12:51.718Z,51.10
2022-09-14T02:15:21.011Z,51.30
2022-09-14T02:17:48.896Z,51.80
2022-09-14T02:20:20.631Z,51.90
2022-09-14T02:22:47.854Z,52.00
2022-09-14T02:25:15.038Z,51.80
2022-09-14T02:27:41.838Z,51.90
2022-09-14T02:30:09.905Z,51.80
2022-09-14T02:32:44.989Z,51.20
2022-09-14T02:35:20.826Z,51.30
2022-09-14T02:37:54.690Z,51.00
2022-09-14T02:40:34.538Z,50.80
2022-09-14T02:43:11.140Z,50.70
2022-09-14T02:45:44.844Z,50.50
2022-09-14T02:48:22.874Z,50.10
2022-09-14T02:50:57.304Z,50.80
2022-09-14T02:53:28.282Z,50.10
2022-09-14T02:55:59.333Z,50.10
2022-09-14T02:58:34.476Z,50.00
2022-09-14T03:01:01.362Z,49.90
2022-09-14T03:03:33.466Z,50.00
2022-09-14T03:06:02.203Z,49.80
2022-09-14T03:08:29.076Z,50.20
2022-09-14T03:10:56.020Z,50.30
2022-09-14T03:13:23.234Z,50.90
2022-09-14T03:15:50.221Z,50.60
2022-09-14T03:18:17.247Z,51.10
2022-09-14T03:20:45.478Z,51.10
2022-09-14T03:23:13.169Z,50.80
2022-09-14T03:25:41.808Z,50.50
2022-09-14T03:28:09.446Z,50.60
2022-09-14T03:30:36.680Z,50.30
2022-09-14T03:33:03.699Z,50.30
2022-09-14T03:35:30.900Z,50.10
2022-09-14T03:38:00.251Z,50.10
2022-09-14T03:40:27.419Z,50.10
2022-09-14T03:42:54.737Z,50.20
2022-09-14T03:45:21.950Z,50.20
2022-09-14T03:47:49.387Z,50.30
2022-09-14T03:50:17.964Z,50.00
2022-09-14T03:52:44.901Z,50.10
2022-09-14T03:55:13.209Z,50.10
2022-09-14T03:57:40.264Z,50.00
2022-09-14T04:00:09.144Z,50.40
2022-09-14T04:02:36.107Z,51.00
2022-09-14T04:05:03.214Z,51.20
2022-09-14T04:07:30.022Z,51.50
2022-09-14T04:09:58.795Z,51.90
2022-09-14T04:12:27.465Z,51.10
2022-09-14T04:14:54.456Z,51.30
2022-09-14T04:17:21.241Z,51.00
2022-09-14T04:19:48.097Z,51.00
2022-09-14T04:22:14.785Z,50.90
2022-09-14T04:24:41.532Z,50.60
2022-09-14T04:27:08.234Z,50.50
2022-09-14T04:29:36.335Z,50.80
2022-09-14T04:32:03.802Z,50.80
2022-09-14T04:34:30.536Z,51.20
2022-09-14T04:36:57.237Z,50.80
2022-09-14T04:39:24.040Z,50.90
2022-09-14T04:41:50.771Z,50.90
2022-09-14T04:44:17.523Z,50.90
2022-09-14T04:46:47.101Z,50.80
2022-09-14T04:49:14.990Z,50.40
2022-09-14T04:51:41.761Z,50.10
2022-09-14T04:54:09.926Z,50.30
2022-09-14T04:56:37.010Z,50.30
2022-09-14T04:59:05.260Z,50.20
2022-09-14T05:01:34.496Z,50.40
2022-09-14T05:04:03.425Z,50.50
2022-09-14T05:06:32.571Z,50.30
2022-09-14T05:09:00.425Z,50.60
2022-09-14T05:11:30.201Z,50.80
2022-09-14T05:13:57.953Z,51.00
2022-09-14T05:16:27.584Z,50.70
2022-09-14T05:18:55.654Z,50.60
2022-09-14T05:21:24.635Z,50.40
2022-09-14T05:23:55.435Z,50.80
2022-09-14T05:26:23.349Z,50.90
2022-09-14T05:28:51.731Z,50.50
2022-09-14T05:31:19.182Z,50.60
2022-09-14T05:33:46.564Z,50.80
2022-09-14T05:36:13.563Z,50.70
2022-09-14T05:38:42.061Z,50.60
2022-09-14T05:41:11.315Z,50.80
2022-09-14T05:43:38.341Z,51.20
2022-09-14T05:46:07.658Z,51.40
2022-09-14T05:48:35.817Z,51.70
2022-09-14T05:51:06.274Z,51.80
2022-09-14T05:53:33.919Z,52.10
2022-09-14T05:56:03.896Z,51.90
2022-09-14T05:58:31.252Z,52.40
2022-09-14T06:00:58.403Z,52.60
2022-09-14T06:03:25.448Z,52.20
2022-09-14T06:05:52.320Z,52.30
2022-09-14T06:08:19.238Z,52.40
2022-09-14T06:10:46.229Z,53.30
2022-09-14T06:13:14.419Z,53.30
2022-09-14T06:15:41.157Z,52.40
2022-09-14T06:18:07.936Z,52.00
2022-09-14T06:20:34.862Z,52.00
2022-09-14T06:23:01.714Z,52.00
2022-09-14T06:25:28.504Z,52.30
2022-09-14T06:27:55.438Z,52.50
2022-09-14T06:30:23.588Z,52.80
2022-09-14T06:32:50.344Z,53.70
2022-09-14T06:35:17.343Z,53.30
2022-09-14T06:37:44.131Z,53.30
2022-09-14T06:40:11.458Z,53.30
2022-09-14T06:42:38.348Z,53.50
2022-09-14T06:45:06.405Z,53.50
2022-09-14T06:47:37.365Z,53.30
2022-09-14T06:50:05.459Z,53.50
2022-09-14T06:52:33.882Z,53.30
2022-09-14T06:55:01.209Z,53.50
2022-09-14T06:57:28.015Z,53.90
2022-09-14T06:59:54.827Z,53.40
2022-09-14T07:02:21.710Z,53.10
2022-09-14T07:04:49.887Z,53.30
2022-09-14T07:07:16.731Z,53.20
2022-09-14T07:09:43.586Z,53.00
2022-09-14T07:12:10.446Z,53.70
2022-09-14T07:14:37.307Z,53.20
2022-09-14T07:17:04.441Z,53.10
2022-09-14T07:19:31.246Z,53.10
2022-09-14T07:22:00.425Z,52.90
2022-09-14T07:24:27.242Z,53.10
2022-09-14T07:26:54.045Z,52.80
2022-09-14T07:29:21.080Z,52.80
2022-09-14T07:31:49.995Z,52.80
2022-09-14T07:34:17.188Z,53.10
2022-09-14T07:36:44.171Z,52.50
2022-09-14T07:39:13.773Z,52.50
2022-09-14T07:41:40.969Z,53.00
2022-09-14T07:44:09.327Z,52.90
2022-09-14T07:46:38.614Z,52.70
2022-09-14T07:49:06.439Z,52.20
2022-09-14T07:51:34.560Z,52.60
2022-09-14T07:54:01.456Z,52.70
2022-09-14T07:56:30.158Z,53.30
2022-09-14T07:59:11.394Z,53.60
2022-09-14T08:01:45.385Z,53.40
2022-09-14T08:04:12.303Z,52.70
2022-09-14T08:06:39.050Z,53.20
2022-09-14T08:09:06.921Z,53.80
2022-09-14T08:11:35.578Z,53.30
2022-09-14T08:14:04.668Z,53.30
2022-09-14T08:16:33.278Z,53.30
2022-09-14T08:19:02.210Z,53.40
2022-09-14T08:21:30.484Z,53.20
2022-09-14T08:23:57.327Z,53.20
2022-09-14T08:26:25.867Z,53.30
2022-09-14T08:28:55.343Z,53.20
2022-09-14T08:31:23.295Z,52.90
2022-09-14T08:33:52.228Z,52.80
2022-09-14T08:36:21.085Z,52.00
2022-09-14T08:38:48.370Z,52.10
2022-09-14T08:41:28.116Z,52.20
2022-09-14T08:44:00.349Z,52.40
2022-09-14T08:46:31.252Z,51.50
2022-09-14T08:48:59.523Z,51.30
2022-09-14T08:51:26.672Z,51.10
2022-09-14T08:53:56.288Z,51.50
2022-09-14T08:56:26.280Z,51.40
2022-09-14T08:59:05.808Z,51.60
2022-09-14T09:01:44.007Z,51.40
2022-09-14T09:04:30.465Z,51.20
2022-09-14T09:07:05.344Z,51.20
2022-09-14T09:09:42.416Z,50.90
2022-09-14T09:12:13.321Z,50.70
2022-09-14T09:14:45.997Z,50.80
2022-09-14T09:17:17.480Z,50.90
2022-09-14T09:19:53.670Z,50.60
2022-09-14T09:22:24.707Z,50.30
2022-09-14T09:24:54.182Z,49.90
2022-09-14T09:27:22.631Z,50.20
2022-09-14T09:29:50.775Z,49.90
2022-09-14T09:32:20.245Z,50.00
2022-09-14T09:34:47.417Z,49.80
2022-09-14T09:37:15.989Z,49.50
2022-09-14T09:39:43.788Z,49.50
2022-09-14T09:42:14.886Z,48.80
2022-09-14T09:45:01.806Z,48.90
2022-09-14T09:47:32.639Z,49.00
2022-09-14T09:50:01.504Z,48.30
2022-09-14T09:52:29.783Z,48.70
2022-09-14T09:54:57.640Z,47.80
2022-09-14T09:57:29.831Z,47.20
2022-09-14T10:00:22.288Z,46.80
2022-09-14T10:02:49.567Z,46.90
2022-09-14T10:05:23.055Z,47.40
2022-09-14T10:07:55.408Z,47.40
2022-09-14T10:10:25.876Z,46.70
2022-09-14T10:12:55.114Z,46.40
2022-09-14T10:15:25.317Z,46.20
2022-09-14T10:18:01.556Z,47.40
2022-09-14T10:20:31.355Z,47.30
2022-09-14T10:23:20.287Z,47.50
2022-09-14T10:25:48.424Z,45.70
2022-09-14T10:28:22.745Z,46.40
2022-09-14T10:30:56.813Z,46.50
2022-09-14T10:33:23.898Z,45.70
2022-09-14T10:35:58.681Z,45.40
2022-09-14T10:38:31.452Z,44.70
2022-09-14T10:41:09.477Z,45.30
2022-09-14T10:43:55.724Z,45.40
2022-09-14T10:46:29.738Z,44.80
2022-09-14T10:49:20.978Z,45.50
2022-09-14T10:51:58.130Z,44.90
2022-09-14T10:54:51.081Z,43.80
2022-09-14T10:57:26.399Z,43.00
2022-09-14T10:59:55.768Z,44.10
2022-09-14T11:03:03.935Z,43.90
2022-09-14T11:05:34.433Z,43.80
2022-09-14T11:08:12.359Z,44.80
2022-09-14T11:10:50.846Z,45.70
2022-09-14T11:13:37.612Z,44.30
2022-09-14T11:16:15.584Z,44.50
2022-09-14T11:18:49.512Z,45.10
2022-09-14T11:21:20.897Z,45.30
2022-09-14T11:23:51.910Z,45.30
2022-09-14T11:26:25.519Z,44.20
2022-09-14T11:28:54.871Z,45.00
2022-09-14T11:31:26.694Z,45.30
2022-09-14T11:34:05.689Z,42.90
2022-09-14T11:36:37.251Z,43.00
2022-09-14T11:39:11.079Z,41.10
2022-09-14T11:41:43.273Z,41.90
2022-09-14T11:44:15.741Z,41.40
2022-09-14T11:46:46.779Z,40.90
2022-09-14T11:49:19.771Z,41.30
2022-09-14T11:51:51.287Z,40.20
2022-09-14T11:54:21.272Z,40.70
2022-09-14T11:56:50.285Z,40.20
2022-09-14T11:59:45.682Z,40.80
2022-09-14T12:02:52.057Z,40.90
2022-09-14T12:05:36.536Z,42.10
2022-09-14T12:08:35.642Z,42.20
2022-09-14T12:11:05.721Z,42.20
2022-09-14T12:13:32.822Z,41.70
2022-09-14T12:16:04.316Z,41.50
2022-09-14T12:18:32.387Z,41.20
2022-09-14T12:21:06.319Z,40.90
2022-09-14T12:23:43.022Z,41.30
2022-09-14T12:26:29.402Z,41.10
2022-09-14T12:29:00.948Z,40.60
2022-09-14T12:31:57.915Z,40.60
2022-09-14T12:34:25.738Z,40.50
2022-09-14T12:37:03.099Z,41.60
2022-09-14T12:39:31.574Z,40.70
2022-09-14T12:42:01.847Z,41.20
2022-09-14T12:44:39.520Z,41.30
2022-09-14T12:47:58.163Z,40.70
2022-09-14T12:50:30.098Z,41.20
2022-09-14T12:53:23.171Z,41.90
2022-09-14T12:56:01.583Z,41.20
2022-09-14T12:58:55.294Z,41.60
2022-09-14T13:01:31.886Z,42.00
2022-09-14T13:03:58.954Z,41.20
2022-09-14T13:06:33.582Z,41.30
2022-09-14T13:09:03.709Z,41.50
2022-09-14T13:11:38.295Z,41.70
2022-09-14T13:14:05.245Z,41.50
2022-09-14T13:16:38.825Z,42.40
2022-09-14T13:19:18.128Z,42.60
2022-09-14T13:21:46.771Z,42.60
2022-09-14T13:24:30.829Z,41.60
2022-09-14T13:26:59.711Z,41.20
2022-09-14T13:29:27.058Z,41.40
2022-09-14T13:31:59.731Z,41.50
2022-09-14T13:34:33.622Z,41.30
2022-09-14T13:37:00.827Z,41.70
2022-09-14T13:39:31.160Z,41.80
2022-09-14T13:41:58.492Z,41.80
2022-09-14T13:44:30.557Z,42.40
2022-09-14T13:47:01.073Z,42.40
2022-09-14T13:49:28.740Z,42.40
2022-09-14T13:52:43.080Z,42.00
2022-09-14T13:55:21.634Z,42.00
2022-09-14T13:58:10.947Z,42.00
2022-09-14T14:00:54.754Z,42.00
2022-09-14T14:03:27.881Z,42.60
2022-09-14T14:05:54.777Z,42.90
2022-09-14T14:08:29.436Z,42.90
2022-09-14T14:10:58.766Z,42.50
2022-09-14T14:13:27.215Z,42.60
2022-09-14T14:15:54.379Z,43.50
2022-09-14T14:18:38.341Z,42.90
2022-09-14T14:21:12.988Z,42.80
2022-09-14T14:23:51.292Z,42.90
2022-09-14T14:26:28.208Z,43.10
2022-09-14T14:28:55.009Z,43.10
2022-09-14T14:31:22.828Z,43.40
2022-09-14T14:33:51.305Z,43.20
2022-09-14T14:36:18.568Z,43.20
2022-09-14T14:38:46.162Z,43.30
2022-09-14T14:41:15.068Z,43.60
2022-09-14T14:43:44.506Z,43.70
2022-09-14T14:46:11.825Z,43.70
2022-09-14T14:48:38.747Z,43.80
2022-09-14T14:51:05.897Z,43.90
2022-09-14T14:53:32.556Z,43.80
2022-09-14T14:55:59.265Z,43.80
2022-09-14T14:58:25.984Z,44.00
2022-09-14T15:00:54.043Z,43.90
2022-09-14T15:03:20.925Z,44.20
2022-09-14T15:05:48.949Z,44.20
2022-09-14T15:08:17.874Z,44.00
2022-09-14T15:10:44.618Z,44.10
2022-09-14T15:13:11.858Z,44.40
2022-09-14T15:15:40.347Z,44.80
2022-09-14T15:18:08.830Z,44.90
2022-09-14T15:20:35.537Z,45.40
2022-09-14T15:23:02.344Z,45.00
2022-09-14T15:25:29.216Z,44.90
2022-09-14T15:27:55.884Z,45.10
2022-09-14T15:30:22.674Z,45.10
2022-09-14T15:32:49.377Z,45.30
2022-09-14T15:35:17.688Z,45.30
2022-09-14T15:37:46.159Z,45.80
2022-09-14T15:40:12.970Z,45.50
2022-09-14T15:42:39.882Z,45.70
2022-09-14T15:45:07.294Z,45.90
2022-09-14T15:47:36.394Z,46.10
2022-09-14T15:50:04.348Z,46.30
2022-09-14T15:52:34.792Z,46.40
2022-09-14T15:55:01.656Z,46.60
2022-09-14T15:57:28.413Z,46.60
2022-09-14T15:59:55.200Z,46.50
2022-09-14T16:02:22.031Z,46.60
2022-09-14T16:04:48.846Z,46.70
2022-09-14T16:07:15.601Z,46.60
2022-09-14T16:09:44.168Z,46.70
2022-09-14T16:12:12.645Z,47.10
2022-09-14T16:14:39.541Z,47.90
2022-09-14T16:17:06.851Z,47.40
2022-09-14T16:19:33.599Z,47.60
2022-09-14T16:22:00.549Z,47.80
2022-09-14T16:24:27.597Z,47.80
2022-09-14T16:26:55.689Z,47.40
2022-09-14T16:29:22.704Z,47.60
2022-09-14T16:31:49.561Z,47.40
2022-09-14T16:34:19.281Z,47.90
2022-09-14T16:36:46.630Z,48.00
2022-09-14T16:39:16.475Z,47.80
2022-09-14T16:41:44.067Z,48.10
2022-09-14T16:44:15.491Z,47.90
2022-09-14T16:46:42.477Z,48.20
2022-09-14T16:49:09.545Z,48.10
2022-09-14T16:51:36.611Z,47.90
2022-09-14T16:54:03.568Z,47.80
2022-09-14T16:56:32.013Z,47.90
2022-09-14T16:58:59.885Z,47.90
2022-09-14T17:01:30.095Z,48.10
2022-09-14T17:03:58.283Z,48.80
2022-09-14T17:06:28.059Z,48.50
2022-09-14T17:08:57.049Z,48.20
2022-09-14T17:11:24.158Z,48.60
2022-09-14T17:13:51.175Z,48.50
2022-09-14T17:16:19.999Z,48.50
2022-09-14T17:18:50.203Z,48.70
2022-09-14T17:21:18.237Z,48.70
2022-09-14T17:23:45.144Z,48.40
2022-09-14T17:26:13.609Z,48.80
2022-09-14T17:28:41.128Z,48.90
2022-09-14T17:31:08.569Z,48.90
2022-09-14T17:33:35.382Z,49.10
2022-09-14T17:36:05.334Z,49.20
2022-09-14T17:38:33.665Z,49.30
2022-09-14T17:41:01.888Z,49.20
2022-09-14T17:43:28.563Z,49.50
2022-09-14T17:45:56.915Z,49.90
2022-09-14T17:48:24.759Z,50.10
2022-09-14T17:50:51.471Z,49.70
2022-09-14T17:53:19.607Z,50.10
2022-09-14T17:55:46.859Z,50.50
2022-09-14T17:58:18.947Z,50.20
2022-09-14T18:00:46.563Z,50.10
2022-09-14T18:03:14.720Z,50.30
2022-09-14T18:05:41.471Z,50.70
2022-09-14T18:08:09.665Z,50.80
2022-09-14T18:10:37.783Z,50.30
2022-09-14T18:13:04.503Z,50.70
2022-09-14T18:15:31.333Z,50.20
2022-09-14T18:17:58.029Z,50.50
2022-09-14T18:20:24.709Z,50.60
2022-09-14T18:22:51.367Z,49.90
2022-09-14T18:25:18.187Z,50.40
2022-09-14T18:27:46.176Z,50.90
2022-09-14T18:30:13.594Z,51.40
2022-09-14T18:32:40.522Z,50.60
2022-09-14T18:35:08.437Z,51.30
2022-09-14T18:37:35.124Z,51.40
2022-09-14T18:40:02.519Z,52.50
2022-09-14T18:42:29.415Z,51.20
2022-09-14T18:44:57.814Z,51.60
2022-09-14T18:47:24.657Z,51.10
2022-09-14T18:49:51.757Z,51.50
2022-09-14T18:52:18.966Z,51.10
2022-09-14T18:54:45.909Z,51.60
2022-09-14T18:57:13.017Z,51.30
2022-09-14T18:59:40.057Z,52.00
2022-09-14T19:02:09.852Z,52.00
2022-09-14T19:04:36.951Z,51.90
2022-09-14T19:07:04.150Z,52.10
2022-09-14T19:09:31.787Z,51.90
2022-09-14T19:11:58.727Z,52.10
2022-09-14T19:14:25.676Z,52.00
2022-09-14T19:16:56.440Z,51.50
2022-09-14T19:19:25.246Z,51.70
2022-09-14T19:21:52.736Z,52.30
2022-09-14T19:24:19.847Z,52.40
2022-09-14T19:26:48.234Z,52.40
2022-09-14T19:29:17.404Z,52.40
2022-09-14T19:31:44.443Z,52.00
2022-09-14T19:34:11.743Z,52.30
2022-09-14T19:36:40.384Z,52.50
2022-09-14T19:39:07.159Z,52.30
2022-09-14T19:41:34.913Z,52.50
2022-09-14T19:44:02.755Z,52.70
2022-09-14T19:46:30.241Z,52.50
2022-09-14T19:48:57.206Z,52.20
2022-09-14T19:51:28.402Z,52.70
2022-09-14T19:53:58.781Z,52.70
2022-09-14T19:56:27.974Z,52.40
2022-09-14T19:58:57.058Z,52.00
2022-09-14T20:01:25.489Z,52.70
2022-09-14T20:03:53.064Z,52.90
2022-09-14T20:06:21.745Z,52.90
2022-09-14T20:08:50.103Z,53.20
2022-09-14T20:11:20.383Z,53.00
2022-09-14T20:13:47.569Z,52.90
2022-09-14T20:16:16.786Z,52.50
2022-09-14T20:18:45.217Z,52.80
2022-09-14T20:21:15.140Z,53.00
2022-09-14T20:23:57.995Z,53.00
2022-09-14T20:26:31.099Z,52.70
2022-09-14T20:28:59.219Z,52.50
2022-09-14T20:31:26.855Z,52.80
2022-09-14T20:33:54.109Z,53.00
2022-09-14T20:36:22.353Z,52.50
2022-09-14T20:38:56.969Z,52.60
2022-09-14T20:41:26.095Z,52.30
2022-09-14T20:43:55.215Z,53.10
2022-09-14T20:46:24.137Z,53.30
2022-09-14T20:48:52.230Z,53.40
2022-09-14T20:51:20.884Z,52.50
2022-09-14T20:53:48.855Z,53.00
2022-09-14T20:56:18.143Z,52.70
2022-09-14T20:58:45.930Z,52.70
2022-09-14T21:01:16.852Z,52.80
2022-09-14T21:03:45.422Z,53.50
2022-09-14T21:06:14.354Z,52.80
2022-09-14T21:08:42.704Z,53.10
2022-09-14T21:11:12.299Z,53.10
2022-09-14T21:13:39.671Z,53.00
2022-09-14T21:16:11.859Z,53.00
2022-09-14T21:18:40.520Z,53.00
2022-09-14T21:21:09.585Z,53.30
2022-09-14T21:23:36.900Z,52.80
2022-09-14T21:26:04.388Z,53.20
2022-09-14T21:28:31.805Z,53.40
2022-09-14T21:31:07.025Z,52.90
2022-09-14T21:33:35.490Z,53.20
2022-09-14T21:36:05.930Z,52.60
2022-09-14T21:38:33.094Z,52.80
2022-09-14T21:41:00.126Z,52.60
2022-09-14T21:43:27.601Z,52.80
2022-09-14T21:45:57.379Z,53.10
2022-09-14T21:48:24.588Z,53.60
2022-09-14T21:51:00.451Z,53.00
2022-09-14T21:53:28.807Z,52.80
2022-09-14T21:55:55.732Z,53.30
2022-09-14T21:58:22.685Z,53.00
2022-09-14T22:00:55.768Z,52.80
2022-09-14T22:03:22.668Z,53.30
2022-09-14T22:05:56.718Z,53.10
2022-09-14T22:08:23.967Z,53.30
2022-09-14T22:10:52.276Z,53.30
2022-09-14T22:13:19.372Z,53.30
2022-09-14T22:15:46.414Z,53.50
2022-09-14T22:18:13.763Z,53.50
2022-09-14T22:20:41.141Z,53.50
2022-09-14T22:23:08.390Z,53.00
2022-09-14T22:25:40.066Z,53.10
2022-09-14T22:28:08.633Z,53.20
2022-09-14T22:30:35.586Z,53.00
2022-09-14T22:33:02.786Z,53.50
2022-09-14T22:35:29.739Z,52.90
2022-09-14T22:37:56.684Z,52.80
2022-09-14T22:40:23.650Z,53.70
2022-09-14T22:42:50.671Z,52.90
2022-09-14T22:45:19.028Z,52.40
2022-09-14T22:47:46.755Z,52.40
2022-09-14T22:50:14.520Z,52.40
2022-09-14T22:52:41.478Z,52.30
2022-09-14T22:55:08.977Z,52.20
2022-09-14T22:57:35.861Z,51.90
2022-09-14T23:00:03.735Z,51.90
2022-09-14T23:02:32.033Z,51.10
2022-09-14T23:04:58.909Z,51.10
2022-09-14T23:07:25.892Z,51.10
2022-09-14T23:09:52.718Z,50.80
2022-09-14T23:12:19.875Z,50.60
2022-09-14T23:14:47.030Z,50.60
2022-09-14T23:17:13.850Z,50.80
2022-09-14T23:19:42.322Z,50.80
2022-09-14T23:22:09.270Z,51.10
2022-09-14T23:24:36.300Z,51.10
2022-09-14T23:27:03.334Z,51.50
2022-09-14T23:29:30.165Z,51.50
2022-09-14T23:31:57.098Z,51.60
2022-09-14T23:34:24.128Z,51.80
2022-09-14T23:36:52.475Z,51.90
2022-09-14T23:39:19.560Z,52.40
2022-09-14T23:41:46.596Z,52.60
2022-09-14T23:44:13.659Z,52.40
2022-09-14T23:46:40.893Z,52.70
2022-09-14T23:49:07.859Z,52.50
2022-09-14T23:51:34.899Z,52.40
2022-09-14T23:54:03.640Z,52.50
2022-09-14T23:56:30.567Z,52.50
2022-09-14T23:58:57.519Z,52.60
